• Join FlightAware (Why Join?)
  • Login
  • US Flag 
06:27AM EDT


 

Airport Tracker/Info


-or-


 

Live Flight TrackerFlight Track Log ✈ SKW6492 ✈ 17-Oct-2013 ✈ KDEN - KCOD

Flight Track Log - Related Links

Times and Time Zones

All times are in EDT time to prevent confusion due to time zone crossing. See the SKW6492 flight status page for this flight to view local times or setup timezone preferences in your user account.

Time Position Orientation Groundspeed Altitude Reporting Facility
EDT Latitude Longitude Course Direction KTS MPH feet Rate Location/Type
09:26PM 39.9500 -104.6833 348° North 206 237 7,800  Level Denver TRACON
09:27PM 40.0167 -104.6667 11° North 244 281 9,900 2,100 Climbing Denver TRACON
09:28PM 40.1154 -104.8908 347° North  Level Estimated
09:28PM 40.0833 -104.6667 360° North 282 325 11,800  Level Denver TRACON
09:29PM 40.1999 -104.9637 346° North  Level Estimated
09:29PM 40.1667 -104.6833 351° North 289 333 14,100  Level Denver TRACON
09:30PM 40.2843 -105.0368 346° North  Level Estimated
09:30PM 40.2589 -104.7108 347° North 316 364 16,100  Level Denver Center
09:31PM 40.3687 -105.1100 348° North  Level Estimated
09:31PM 40.3464 -104.7353 348° North 319 367 18,000  Level Denver Center
09:32PM 40.4361 -104.7578 349° North 330 380 19,800 1,740 Climbing Denver Center
09:33PM 40.5322 -104.7842 348° North 326 375 21,600 1,560 Climbing Denver Center
09:34PM 40.6256 -104.8081 349° North 339 390 23,100 1,200 Climbing Denver Center
09:35PM 40.7144 -104.8672 333° Northwest 343 395 24,100 1,080 Climbing Denver Center
09:36PM 40.7883 -104.9378 324° Northwest 330 380 25,400 900 Climbing Denver Center
09:37PM 40.8644 -105.0136 323° Northwest 334 384 26,000 240 Climbing Denver Center
09:38PM 40.9428 -105.0939 322° Northwest 348 400 26,000  Level Denver Center
09:39PM 41.0311 -105.1850 322° Northwest 356 410 26,000  Level Denver Center
09:40PM 41.1069 -105.2628 322° Northwest 359 413 26,000  Level Denver Center
09:41PM 41.1956 -105.3522 323° Northwest 358 412 26,000  Level Denver Center
09:42PM 41.2711 -105.4311 322° Northwest 360 414 26,000  Level Denver Center
09:43PM 41.3586 -105.5217 322° Northwest 357 411 26,000  Level Denver Center
09:44PM 41.4331 -105.5992 322° Northwest 355 409 26,000  Level Denver Center
09:45PM 41.5186 -105.6858 323° Northwest 348 400 26,000  Level Denver Center
09:46PM 41.5939 -105.7658 322° Northwest 358 412 26,000  Level Denver Center
09:47PM 41.6681 -105.8439 322° Northwest 355 409 26,000  Level Denver Center
09:48PM 41.7544 -105.9353 322° Northwest 354 407 26,000  Level Denver Center
09:49PM 41.8317 -106.0161 322° Northwest 360 414 26,000  Level Denver Center
09:50PM 41.9194 -106.1083 322° Northwest 359 413 26,000  Level Denver Center
09:52PM 41.9950 -106.1889 322° Northwest 361 415 26,000  Level Denver Center
09:53PM 42.0828 -106.2833 321° Northwest 361 415 26,000  Level Denver Center
09:54PM 42.1569 -106.3631 321° Northwest 359 413 26,000  Level Denver Center
09:55PM 42.2450 -106.4581 321° Northwest 361 415 26,000  Level Denver Center
09:56PM 42.3250 -106.5439 322° Northwest 365 420 26,000  Level Denver Center
09:57PM 42.3983 -106.6225 322° Northwest 366 421 26,000  Level Denver Center
09:58PM 42.4858 -106.7175 321° Northwest 361 415 26,000  Level Denver Center
09:59PM 42.5617 -106.7997 321° Northwest 363 418 26,000  Level Denver Center
10:00PM 42.6547 -106.8861 326° Northwest 363 418 26,000  Level Denver Center
10:01PM 42.7353 -106.9594 326° Northwest 364 419 26,000  Level Denver Center
10:02PM 42.8314 -107.0439 327° Northwest 365 420 26,000  Level Denver Center
10:03PM 42.9128 -107.1181 326° Northwest 367 422 26,000  Level Denver Center
10:03PM 42.9506 -107.1550 324° Northwest 363 418 26,000  Level Salt Lake Center
10:04PM 43.0519 -107.2444 327° Northwest 361 415 26,000  Level Salt Lake Center
10:05PM 43.1361 -107.3200 327° Northwest 362 417 26,000  Level Salt Lake Center
10:07PM 43.2189 -107.3969 326° Northwest 359 413 26,000  Level Salt Lake Center
10:08PM 43.3036 -107.4736 327° Northwest 364 419 26,000  Level Salt Lake Center
10:09PM 43.3847 -107.5514 325° Northwest 358 412 26,000  Level Salt Lake Center
10:10PM 43.4669 -107.6272 326° Northwest 356 410 26,000  Level Salt Lake Center
10:11PM 43.5497 -107.7036 326° Northwest 357 411 26,000  Level Salt Lake Center
10:12PM 43.6486 -107.7953 326° Northwest 357 411 26,000  Level Salt Lake Center
10:13PM 43.7328 -107.8694 328° Northwest 359 413 26,000  Level Salt Lake Center
10:14PM 43.8156 -107.9464 326° Northwest 357 411 26,000  Level Salt Lake Center
10:15PM 43.8981 -108.0233 326° Northwest 357 411 26,000  Level Salt Lake Center
10:16PM 43.9817 -108.1011 326° Northwest 360 414 26,000 -1,020 Level Salt Lake Center
10:17PM 44.0644 -108.1822 325° Northwest 363 418 24,000 -2,340 Descending Salt Lake Center
10:18PM 44.1467 -108.2594 326° Northwest 358 412 21,200 -3,060 Descending Salt Lake Center
10:19PM 44.2408 -108.3494 326° Northwest 346 398 17,800 -3,000 Descending Salt Lake Center
10:20PM 44.3169 -108.4211 326° Northwest 339 390 15,100 -2,520 Descending Salt Lake Center
10:21PM 44.3892 -108.4908 325° Northwest 329 379 12,700 -1,800 Descending Salt Lake Center
10:22PM 44.4525 -108.5514 326° Northwest 306 352 11,500 -1,200 Descending Salt Lake Center
10:23PM 44.5061 -108.6039 325° Northwest 266 306 10,300 -1,260 Descending Salt Lake Center
10:24PM 44.5614 -108.6564 326° Northwest 249 287 9,000 -780 Descending Salt Lake Center
10:25PM 44.6100 -108.7047 325° Northwest 235 270 8,700 -540 Descending Salt Lake Center
10:26PM 44.6464 -108.7456 321° Northwest 200 230 8,000 -540 Descending Salt Lake Center
10:27PM 44.6369 -108.8172 260° West 187 215 7,600 -300 Descending Salt Lake Center
10:28PM 44.6086 -108.8708 233° Southwest 181 208 7,500 -360 Descending Salt Lake Center
10:29PM 44.5817 -108.9181 231° Southwest 167 192 6,900 -720 Descending Salt Lake Center
10:30PM 44.5544 -108.9656 231° Southwest 162 186 6,100 -780 Descending Salt Lake Center
10:31PM 44.5269 -109.0136 231° Southwest 158 182 5,400 -720 Descending Salt Lake Center